Time;durP1;ratioP1;P1;durP2;ratioP2;P2;SDS_P1;SDS_P2;PMS_P1;PMS_P2;Temp;Humidity;BMP_temperature;BMP_pressure;BME280_temperature;BME280_humidity;BME280_pressure;Samples;Min_cycle;Max_cycle;Signal;HPM_P1;HPM_P2
2022/08/23 00:01:46;;;;;;;10.23;6.00;;;15.70;99.90;;;;;;5074060;28;20113;-55
2022/08/23 00:04:16;;;;;;;10.25;5.45;;;15.70;99.90;;;;;;5073890;28;20021;-52
2022/08/23 00:06:44;;;;;;;6.47;5.88;;;15.70;99.90;;;;;;5073848;28;20593;-53
2022/08/23 00:09:10;;;;;;;7.15;5.68;;;15.70;99.90;;;;;;5073429;28;20403;-53
2022/08/23 00:12:04;;;;;;;8.52;6.00;;;15.70;99.90;;;;;;5072634;28;20042;-53
2022/08/23 00:14:33;;;;;;;8.20;5.72;;;15.70;99.90;;;;;;5064722;28;20145;-54
2022/08/23 00:16:59;;;;;;;6.40;5.90;;;15.60;99.90;;;;;;5073703;28;20048;-54
2022/08/23 00:19:26;;;;;;;5.85;5.35;;;15.60;99.90;;;;;;5072229;28;20414;-54
2022/08/23 00:21:53;;;;;;;5.85;5.35;;;15.60;99.90;;;;;;5073577;28;20467;-52
2022/08/23 00:24:21;;;;;;;6.75;5.55;;;15.70;99.90;;;;;;5072856;28;20372;-52
2022/08/23 00:26:55;;;;;;;10.95;5.28;;;15.70;99.90;;;;;;5072297;28;20215;-56
2022/08/23 00:29:27;;;;;;;12.57;6.25;;;15.70;99.90;;;;;;5073163;28;20039;-53
2022/08/23 00:31:53;;;;;;;7.88;5.68;;;15.70;99.90;;;;;;5073425;28;20020;-54
2022/08/23 00:34:20;;;;;;;11.23;5.97;;;15.70;99.90;;;;;;5072845;28;20051;-55
2022/08/23 00:36:48;;;;;;;11.95;7.03;;;15.80;99.90;;;;;;5073280;28;20025;-55
2022/08/23 00:39:14;;;;;;;7.28;6.55;;;15.80;99.90;;;;;;5072922;28;20029;-55
2022/08/23 00:41:40;;;;;;;12.65;7.65;;;15.80;99.90;;;;;;5073180;28;20032;-53
2022/08/23 00:49:53;;;;;;;10.43;7.43;;;15.80;99.90;;;;;;5073129;28;20090;-54
2022/08/23 00:52:57;;;;;;;9.02;7.18;;;15.70;99.90;;;;;;5072666;28;20023;-55
2022/08/23 00:55:23;;;;;;;;;;;15.70;99.90;;;;;;5073236;28;20047;-54
2022/08/23 00:57:50;;;;;;;8.02;7.22;;;15.70;99.90;;;;;;5073021;28;19915;-55
2022/08/23 01:00:17;;;;;;;12.88;7.28;;;15.70;99.90;;;;;;5072795;28;20031;-55
2022/08/23 01:02:45;;;;;;;8.68;6.50;;;15.70;99.90;;;;;;5072749;28;20016;-54
2022/08/23 01:05:12;;;;;;;13.05;8.18;;;15.60;99.90;;;;;;5072713;28;20033;-54
2022/08/23 01:07:53;;;;;;;11.23;8.27;;;15.60;99.90;;;;;;5072327;28;20043;-54
2022/08/23 01:10:47;;;;;;;11.02;8.38;;;15.60;99.90;;;;;;5072472;28;20535;-52
2022/08/23 01:13:21;;;;;;;8.43;7.20;;;15.60;99.90;;;;;;5072562;28;20112;-55
2022/08/23 01:15:56;;;;;;;9.30;8.40;;;15.60;99.90;;;;;;5072626;28;20017;-53
2022/08/23 01:18:25;;;;;;;11.98;8.30;;;15.60;99.90;;;;;;5072395;28;20046;-53
2022/08/23 01:20:59;;;;;;;9.25;8.20;;;15.60;99.90;;;;;;5072445;28;20024;-52
2022/08/23 01:23:36;;;;;;;13.25;8.75;;;15.60;99.90;;;;;;5071824;28;20047;-54
2022/08/23 01:26:04;;;;;;;11.52;7.78;;;15.60;99.90;;;;;;5071133;28;20055;-55
2022/08/23 01:28:30;;;;;;;9.57;7.70;;;15.60;99.90;;;;;;5072201;28;20024;-55
2022/08/23 01:30:56;;;;;;;9.23;7.47;;;15.60;99.90;;;;;;5072113;28;20029;-55
2022/08/23 01:33:22;;;;;;;8.73;7.72;;;15.60;99.90;;;;;;5072304;28;20035;-53
2022/08/23 01:35:52;;;;;;;12.45;8.02;;;15.60;99.90;;;;;;5071985;28;20021;-55
2022/08/23 01:38:19;;;;;;;11.02;9.65;;;15.60;99.90;;;;;;5071954;28;20025;-55
2022/08/23 01:40:45;;;;;;;16.15;8.77;;;15.60;99.90;;;;;;5071812;28;20071;-55
2022/08/23 01:43:12;;;;;;;14.50;8.23;;;15.60;99.90;;;;;;5071958;28;20079;-56
2022/08/23 01:45:39;;;;;;;16.60;8.95;;;15.60;99.90;;;;;;5071872;28;20368;-53
2022/08/23 01:48:04;;;;;;;8.48;7.18;;;15.60;99.90;;;;;;5071333;28;20031;-55
2022/08/23 01:50:30;;;;;;;10.20;7.10;;;15.60;99.90;;;;;;5071753;28;20025;-56
2022/08/23 01:52:57;;;;;;;19.40;8.02;;;15.60;99.90;;;;;;5071955;28;20024;-55
2022/08/23 01:55:23;;;;;;;10.02;7.65;;;15.50;99.90;;;;;;5071545;28;20039;-54
2022/08/23 01:57:53;;;;;;;10.35;8.20;;;15.50;99.90;;;;;;5071875;28;20348;-55
2022/08/23 02:00:22;;;;;;;9.90;7.10;;;15.50;99.90;;;;;;5070343;28;20379;-56
2022/08/23 02:02:48;;;;;;;9.93;8.88;;;15.50;99.90;;;;;;5071974;28;20039;-53
2022/08/23 02:05:14;;;;;;;12.65;8.05;;;15.50;99.90;;;;;;5071674;28;20028;-55
2022/08/23 02:07:40;;;;;;;9.40;8.10;;;15.50;99.90;;;;;;5071125;28;20066;-53
2022/08/23 02:10:07;;;;;;;12.60;7.78;;;15.50;99.90;;;;;;5071558;28;20033;-52
2022/08/23 02:12:33;;;;;;;10.23;8.15;;;15.50;99.90;;;;;;5071451;28;20028;-55
2022/08/23 02:14:59;;;;;;;7.60;6.90;;;15.50;99.90;;;;;;5070289;28;20023;-54
2022/08/23 02:17:25;;;;;;;6.72;6.15;;;15.50;99.90;;;;;;5071402;28;20037;-56
2022/08/23 02:19:50;;;;;;;7.18;6.53;;;15.60;99.90;;;;;;5071561;28;20106;-55
2022/08/23 02:22:16;;;;;;;9.15;6.45;;;15.70;99.90;;;;;;5071198;28;20056;-51
2022/08/23 02:24:45;;;;;;;14.57;7.05;;;15.70;99.90;;;;;;5071494;28;20060;-54
2022/08/23 02:27:14;;;;;;;12.35;6.95;;;15.60;99.90;;;;;;5071316;28;20039;-51
2022/08/23 02:29:41;;;;;;;10.98;7.35;;;15.60;99.90;;;;;;5070058;28;20100;-54
2022/08/23 02:32:07;;;;;;;9.43;7.13;;;15.60;99.90;;;;;;5071360;28;20033;-52
2022/08/23 02:34:33;;;;;;;16.30;6.75;;;15.60;99.90;;;;;;5071475;28;20050;-53
2022/08/23 02:36:59;;;;;;;8.80;6.47;;;15.60;99.90;;;;;;5071169;28;20467;-54
2022/08/23 02:39:25;;;;;;;11.05;7.50;;;15.50;99.90;;;;;;5071295;28;20035;-51
2022/08/23 02:41:52;;;;;;;7.40;6.70;;;15.50;99.90;;;;;;5071350;28;20020;-53
2022/08/23 02:44:18;;;;;;;10.90;6.72;;;15.50;99.90;;;;;;5071158;28;20066;-53
2022/08/23 02:46:45;;;;;;;10.90;6.47;;;15.60;99.90;;;;;;5071191;28;20028;-54
2022/08/23 02:49:11;;;;;;;8.93;7.28;;;15.60;99.90;;;;;;5071063;28;20086;-54
2022/08/23 02:51:37;;;;;;;9.98;6.57;;;15.50;99.90;;;;;;5071058;28;20016;-51
2022/08/23 02:54:04;;;;;;;9.18;6.53;;;15.50;99.90;;;;;;5071380;28;20491;-54
2022/08/23 02:56:30;;;;;;;13.70;7.00;;;15.50;99.90;;;;;;5069670;28;20025;-55
2022/08/23 02:58:55;;;;;;;12.25;8.18;;;15.50;99.90;;;;;;5073830;28;20016;-54
2022/08/23 03:01:27;;;;;;;11.30;7.35;;;15.40;99.90;;;;;;5074766;28;20032;-52
2022/08/23 03:03:53;;;;;;;10.35;7.30;;;15.40;99.90;;;;;;5073775;28;20055;-52
2022/08/23 03:06:19;;;;;;;7.28;6.63;;;15.40;99.90;;;;;;5074977;28;20055;-54
2022/08/23 03:08:45;;;;;;;12.00;7.13;;;15.50;99.90;;;;;;5074798;28;20041;-54
2022/08/23 03:11:13;;;;;;;11.50;7.95;;;15.50;99.90;;;;;;5074753;28;20541;-52
2022/08/23 03:13:40;;;;;;;13.63;7.68;;;15.50;99.90;;;;;;5074893;28;20099;-54
2022/08/23 03:16:07;;;;;;;10.93;8.13;;;15.40;99.90;;;;;;5074832;28;20024;-53
2022/08/23 03:18:34;;;;;;;9.07;7.13;;;15.40;99.90;;;;;;5073209;28;20036;-52
2022/08/23 03:20:59;;;;;;;8.45;5.90;;;15.40;99.90;;;;;;5074707;28;20043;-54
2022/08/23 03:23:25;;;;;;;13.25;6.30;;;15.50;99.90;;;;;;5074594;28;20029;-55
2022/08/23 03:25:51;;;;;;;12.27;7.05;;;15.50;99.90;;;;;;5074747;28;20532;-51
2022/08/23 03:28:18;;;;;;;11.77;7.35;;;15.40;99.90;;;;;;5074586;28;20107;-55
2022/08/23 03:30:44;;;;;;;8.20;7.22;;;15.40;99.90;;;;;;5072968;28;20040;-52
2022/08/23 03:33:10;;;;;;;7.65;6.85;;;15.40;99.90;;;;;;5074399;28;20107;-55
2022/08/23 03:35:36;;;;;;;9.63;7.35;;;15.40;99.90;;;;;;5074623;28;20092;-54
2022/08/23 03:38:01;;;;;;;11.18;7.13;;;15.40;99.90;;;;;;5074438;28;20383;-54
2022/08/23 03:40:27;;;;;;;11.07;7.70;;;15.40;99.90;;;;;;5072957;28;20099;-54
2022/08/23 03:42:53;;;;;;;11.82;8.02;;;15.40;99.90;;;;;;5074389;28;20032;-56
2022/08/23 03:45:38;;;;;;;9.02;7.10;;;15.40;99.90;;;;;;5073915;28;20434;-55
2022/08/23 03:48:04;;;;;;;10.32;6.80;;;15.30;99.90;;;;;;5074161;28;20029;-54
2022/08/23 03:50:30;;;;;;;9.43;6.60;;;15.40;99.90;;;;;;5073956;28;20031;-51
2022/08/23 03:52:55;;;;;;;7.35;6.75;;;15.40;99.90;;;;;;5074168;28;20029;-53
2022/08/23 03:55:21;;;;;;;9.70;6.47;;;15.40;99.90;;;;;;5074139;28;20028;-53
2022/08/23 03:57:47;;;;;;;11.50;6.78;;;15.40;99.90;;;;;;5074255;28;20032;-55
2022/08/23 04:00:14;;;;;;;9.77;7.75;;;15.40;99.90;;;;;;5073861;28;20082;-56
2022/08/23 04:02:40;;;;;;;9.18;8.27;;;15.40;99.90;;;;;;5074022;28;20028;-52
2022/08/23 04:05:09;;;;;;;7.80;7.00;;;15.30;99.90;;;;;;5073789;28;20035;-55
2022/08/23 04:07:37;;;;;;;7.82;7.07;;;15.40;99.90;;;;;;5073880;28;20040;-53
2022/08/23 04:10:04;;;;;;;8.38;6.97;;;15.30;99.90;;;;;;5071581;28;20037;-56
2022/08/23 04:12:30;;;;;;;14.50;7.30;;;15.30;99.90;;;;;;5073856;28;20074;-54
2022/08/23 04:14:56;;;;;;;12.25;7.45;;;15.30;99.90;;;;;;5073715;28;20414;-56
2022/08/23 04:17:21;;;;;;;10.23;7.50;;;15.30;99.90;;;;;;5073553;28;20036;-53
2022/08/23 04:19:48;;;;;;;8.40;6.95;;;15.30;99.90;;;;;;5073621;28;20020;-52
2022/08/23 04:22:17;;;;;;;9.68;7.35;;;15.30;99.90;;;;;;5073199;28;20103;-55
2022/08/23 04:24:44;;;;;;;10.80;7.47;;;15.40;99.90;;;;;;5072108;28;20029;-55
2022/08/23 04:27:11;;;;;;;9.63;6.85;;;15.40;99.90;;;;;;5073571;28;20106;-54
2022/08/23 04:29:38;;;;;;;12.85;7.10;;;15.30;99.90;;;;;;5073359;28;20074;-56
2022/08/23 04:32:06;;;;;;;9.40;7.85;;;15.30;99.90;;;;;;5073296;28;20024;-53
2022/08/23 04:34:33;;;;;;;11.25;7.50;;;15.30;99.90;;;;;;5073354;28;20013;-55
2022/08/23 04:36:58;;;;;;;17.23;8.45;;;15.30;99.90;;;;;;5073493;28;20029;-55
2022/08/23 04:39:24;;;;;;;12.90;8.27;;;15.30;99.90;;;;;;5073172;28;20673;-55
2022/08/23 04:44:34;;;;;;;13.15;7.03;;;15.30;99.90;;;;;;5073212;28;20040;-52
2022/08/23 04:47:00;;;;;;;11.45;6.82;;;15.40;99.90;;;;;;5072989;28;20036;-55
2022/08/23 04:49:26;;;;;;;8.57;6.78;;;15.40;99.90;;;;;;5072785;28;20029;-55
2022/08/23 04:51:52;;;;;;;13.57;7.50;;;15.40;99.90;;;;;;5073060;28;20024;-54
2022/08/23 04:54:18;;;;;;;14.20;7.35;;;15.40;99.90;;;;;;5072865;28;20101;-56
2022/08/23 04:56:44;;;;;;;8.02;6.60;;;15.40;99.90;;;;;;5073065;28;20631;-53
2022/08/23 04:59:10;;;;;;;7.93;6.57;;;15.60;99.90;;;;;;5072564;28;20506;-56
2022/08/23 05:01:35;;;;;;;8.35;6.47;;;15.60;99.90;;;;;;5072493;28;20460;-53
2022/08/23 05:04:02;;;;;;;7.15;5.78;;;15.60;99.90;;;;;;5072824;28;20027;-55
2022/08/23 05:06:30;;;;;;;8.80;6.88;;;15.60;99.90;;;;;;5072597;28;20191;-51
2022/08/23 05:08:56;;;;;;;8.25;6.82;;;15.60;99.90;;;;;;5072758;28;20040;-53
2022/08/23 05:11:21;;;;;;;7.13;6.50;;;15.70;99.90;;;;;;5072507;28;20035;-51
2022/08/23 05:13:47;;;;;;;9.77;6.38;;;15.70;99.90;;;;;;5072599;28;20107;-54
2022/08/23 05:16:13;;;;;;;8.43;6.45;;;15.70;99.90;;;;;;5072236;28;20020;-53
2022/08/23 05:18:39;;;;;;;8.88;6.78;;;15.80;99.90;;;;;;5072532;28;20017;-51
2022/08/23 05:21:05;;;;;;;11.57;6.63;;;15.80;99.90;;;;;;5072098;28;20480;-55
2022/08/23 05:23:31;;;;;;;8.60;6.40;;;15.80;99.90;;;;;;5072294;28;20036;-51
2022/08/23 05:25:57;;;;;;;13.57;6.75;;;15.80;99.90;;;;;;5072203;28;20093;-50
2022/08/23 05:28:31;;;;;;;14.48;6.43;;;15.90;99.90;;;;;;5072118;28;20576;-53
2022/08/23 05:31:00;;;;;;;7.30;6.22;;;15.90;99.90;;;;;;5072081;28;20036;-51
2022/08/23 05:33:27;;;;;;;14.07;6.35;;;15.90;99.90;;;;;;5072118;28;20055;-53
2022/08/23 05:35:54;;;;;;;8.18;6.50;;;15.90;99.90;;;;;;5072228;28;20020;-51
2022/08/23 05:38:20;;;;;;;7.97;6.43;;;15.90;99.90;;;;;;5071964;28;20031;-53
2022/08/23 05:40:50;;;;;;;9.55;6.40;;;15.90;99.90;;;;;;5070748;28;20131;-51
2022/08/23 05:43:16;;;;;;;12.65;6.75;;;15.90;99.90;;;;;;5071939;28;20046;-53
2022/08/23 05:45:42;;;;;;;7.82;6.50;;;15.80;99.90;;;;;;5071852;28;20140;-55
2022/08/23 05:48:07;;;;;;;10.32;6.43;;;15.90;99.90;;;;;;5071723;28;20149;-52
2022/08/23 05:50:36;;;;;;;14.02;6.65;;;15.90;99.90;;;;;;5071784;28;20097;-53
2022/08/23 05:53:02;;;;;;;8.20;6.30;;;15.90;99.90;;;;;;5071863;28;20075;-52
2022/08/23 05:55:27;;;;;;;7.82;6.25;;;15.90;99.90;;;;;;5071505;28;20020;-51
2022/08/23 05:57:53;;;;;;;7.70;6.90;;;15.90;99.90;;;;;;5071856;28;20104;-53
2022/08/23 06:00:19;;;;;;;6.80;6.03;;;15.90;99.90;;;;;;5071151;28;20020;-52
2022/08/23 06:02:46;;;;;;;8.57;6.68;;;16.00;99.90;;;;;;5071769;28;20024;-51
2022/08/23 06:05:12;;;;;;;9.55;6.93;;;16.20;99.90;;;;;;5071376;28;20047;-55
2022/08/23 06:07:38;;;;;;;11.07;6.45;;;16.30;99.90;;;;;;5070323;28;20040;-52
2022/08/23 06:10:04;;;;;;;16.58;6.07;;;16.40;99.90;;;;;;5071426;28;20035;-54
2022/08/23 06:12:31;;;;;;;8.23;5.32;;;16.30;99.90;;;;;;5071535;28;20032;-53
2022/08/23 06:14:56;;;;;;;7.55;6.68;;;16.30;99.90;;;;;;5071561;28;20460;-54
2022/08/23 06:17:22;;;;;;;7.57;6.78;;;16.40;99.90;;;;;;5070181;28;20031;-55
2022/08/23 06:19:48;;;;;;;8.70;6.55;;;16.50;99.90;;;;;;5070415;28;20515;-54
2022/08/23 06:22:15;;;;;;;13.07;7.57;;;16.50;99.90;;;;;;5070149;28;20024;-51
2022/08/23 06:24:41;;;;;;;11.95;6.85;;;16.50;99.90;;;;;;5073902;28;20024;-53
2022/08/23 06:27:07;;;;;;;8.88;5.57;;;16.50;99.90;;;;;;5069811;28;20020;-53
2022/08/23 06:29:33;;;;;;;11.77;6.70;;;16.40;99.90;;;;;;5070586;28;20302;-52
2022/08/23 06:31:58;;;;;;;10.75;5.65;;;16.50;99.90;;;;;;5069445;28;20016;-52
2022/08/23 06:34:35;;;;;;;5.65;5.15;;;16.50;99.90;;;;;;5069144;28;20182;-55
2022/08/23 06:37:05;;;;;;;5.82;5.32;;;16.50;99.90;;;;;;5069533;28;20021;-53
2022/08/23 06:39:32;;;;;;;7.63;6.43;;;16.60;99.90;;;;;;5069535;28;20039;-52
2022/08/23 06:42:03;;;;;;;8.00;5.03;;;16.60;99.90;;;;;;5072326;28;20015;-52
2022/08/23 06:44:30;;;;;;;11.25;5.72;;;16.50;99.90;;;;;;5069389;28;20095;-52
2022/08/23 06:46:56;;;;;;;9.10;5.15;;;16.60;99.90;;;;;;5069738;28;20024;-53
2022/08/23 06:49:23;;;;;;;7.18;5.60;;;16.70;99.90;;;;;;5069217;28;20422;-54
2022/08/23 06:51:51;;;;;;;7.75;5.20;;;16.70;99.90;;;;;;5069452;28;20046;-53
2022/08/23 06:54:19;;;;;;;5.07;4.57;;;16.90;99.90;;;;;;5069432;28;20021;-53
2022/08/23 06:56:46;;;;;;;11.35;5.25;;;17.00;99.90;;;;;;5066010;28;20020;-52
2022/08/23 06:59:12;;;;;;;6.07;4.80;;;17.20;99.90;;;;;;5069087;28;20040;-51
2022/08/23 07:01:49;;;;;;;7.40;4.75;;;17.20;99.90;;;;;;5069346;28;20024;-53
2022/08/23 07:04:24;;;;;;;9.98;5.13;;;17.30;99.90;;;;;;5068263;28;20023;-51
2022/08/23 07:06:50;;;;;;;7.60;4.95;;;17.30;99.90;;;;;;5069614;28;20079;-55
2022/08/23 07:09:17;;;;;;;9.23;4.53;;;17.10;99.90;;;;;;5069688;28;20056;-50
2022/08/23 07:11:43;;;;;;;7.20;4.97;;;17.30;99.90;;;;;;5069580;28;20050;-52
2022/08/23 07:14:12;;;;;;;6.13;4.88;;;17.40;99.90;;;;;;5069245;28;20480;-53
2022/08/23 07:16:42;;;;;;;11.57;4.55;;;17.40;99.90;;;;;;5069812;28;20021;-52
2022/08/23 07:19:08;;;;;;;5.82;4.07;;;17.50;99.90;;;;;;5069580;28;20099;-51
2022/08/23 07:21:34;;;;;;;6.07;4.07;;;17.50;99.90;;;;;;5069633;28;20103;-52
2022/08/23 07:24:01;;;;;;;7.75;4.55;;;17.60;99.90;;;;;;5069057;28;20388;-54
2022/08/23 07:26:28;;;;;;;4.35;3.95;;;17.80;99.90;;;;;;5068595;28;20028;-53
2022/08/23 07:28:54;;;;;;;4.95;4.05;;;17.70;99.90;;;;;;5073186;28;20108;-54
2022/08/23 07:31:30;;;;;;;4.55;4.00;;;17.80;99.90;;;;;;5068677;28;20099;-53
2022/08/23 07:33:58;;;;;;;10.10;4.75;;;18.00;99.90;;;;;;5069062;28;20071;-52
2022/08/23 07:36:26;;;;;;;7.28;3.92;;;18.30;99.90;;;;;;5069117;28;20025;-52
2022/08/23 07:38:52;;;;;;;8.25;3.72;;;18.40;99.90;;;;;;5069072;28;20096;-52
2022/08/23 07:41:19;;;;;;;4.53;3.88;;;18.50;99.90;;;;;;5068871;28;20493;-52
2022/08/23 07:43:45;;;;;;;6.50;4.38;;;18.50;99.90;;;;;;5068906;28;20423;-52
2022/08/23 07:46:12;;;;;;;9.40;4.45;;;18.30;99.90;;;;;;5069798;28;20025;-54
2022/08/23 07:48:38;;;;;;;5.80;3.95;;;18.30;99.90;;;;;;5072489;28;20078;-51
2022/08/23 07:51:08;;;;;;;10.23;3.70;;;18.70;99.90;;;;;;5072384;28;20219;-54
2022/08/23 07:53:34;;;;;;;8.88;3.47;;;18.80;99.90;;;;;;5071902;28;20067;-51
2022/08/23 07:56:04;;;;;;;4.65;3.33;;;18.80;99.90;;;;;;5072344;28;20024;-54
2022/08/23 07:58:30;;;;;;;5.90;2.95;;;18.70;99.90;;;;;;5072294;28;20044;-52
2022/08/23 08:00:55;;;;;;;7.20;3.72;;;18.60;99.90;;;;;;5072422;28;20040;-51
2022/08/23 08:03:21;;;;;;;5.28;3.20;;;18.70;99.90;;;;;;5072393;28;20028;-52
2022/08/23 08:05:47;;;;;;;5.00;3.15;;;18.70;99.90;;;;;;5072230;28;20036;-52
2022/08/23 08:08:12;;;;;;;7.18;3.67;;;18.60;99.90;;;;;;5071901;28;20079;-52
2022/08/23 08:10:40;;;;;;;11.27;3.13;;;18.80;99.90;;;;;;5071929;28;20112;-51
2022/08/23 08:13:07;;;;;;;8.82;2.83;;;18.70;99.90;;;;;;5071865;28;20431;-54
2022/08/23 08:15:34;;;;;;;6.20;3.20;;;19.00;99.90;;;;;;5072120;28;20008;-52
2022/08/23 08:18:00;;;;;;;3.65;2.88;;;19.40;99.90;;;;;;5071950;28;20028;-52
2022/08/23 08:20:27;;;;;;;6.53;3.83;;;19.50;99.90;;;;;;5071730;28;20582;-52
2022/08/23 08:22:53;;;;;;;4.45;2.58;;;19.60;99.90;;;;;;5071892;28;20021;-51
2022/08/23 08:25:18;;;;;;;4.45;2.85;;;19.40;99.90;;;;;;5071714;28;20016;-51
2022/08/23 08:27:44;;;;;;;2.75;2.53;;;19.40;99.90;;;;;;5071710;28;20064;-53
2022/08/23 08:30:11;;;;;;;3.28;2.50;;;19.80;99.90;;;;;;5071547;28;20108;-52
2022/08/23 08:32:37;;;;;;;3.80;2.33;;;19.80;99.90;;;;;;5071578;28;20118;-52
2022/08/23 08:35:05;;;;;;;4.47;2.38;;;19.70;99.90;;;;;;5071591;28;20025;-51
2022/08/23 08:37:31;;;;;;;6.03;2.88;;;19.80;99.90;;;;;;5071544;28;20099;-52
2022/08/23 08:39:58;;;;;;;4.43;2.40;;;19.90;99.90;;;;;;5071535;28;20103;-51
2022/08/23 08:43:08;;;;;;;4.55;3.05;;;19.60;99.90;;;;;;5071318;28;20028;-51
2022/08/23 08:46:02;;;;;;;6.95;3.00;;;19.90;99.90;;;;;;5052155;28;20040;-52
2022/08/23 08:48:32;;;;;;;3.65;2.53;;;19.70;99.90;;;;;;5071701;28;20016;-52
2022/08/23 08:51:02;;;;;;;7.05;2.80;;;19.70;99.90;;;;;;5071486;28;20110;-54
2022/08/23 08:53:33;;;;;;;4.88;3.10;;;19.90;99.90;;;;;;5070325;28;20089;-52
2022/08/23 08:56:20;;;;;;;7.47;3.08;;;20.00;99.90;;;;;;5069213;28;20043;-52
2022/08/23 08:58:52;;;;;;;4.32;2.55;;;19.80;99.80;;;;;;5071662;28;20017;-53
2022/08/23 09:01:20;;;;;;;2.92;2.40;;;20.20;99.90;;;;;;5071472;28;20029;-51
2022/08/23 09:03:47;;;;;;;3.45;2.33;;;20.20;99.80;;;;;;5071639;28;20095;-53
2022/08/23 09:06:34;;;;;;;6.82;2.75;;;20.20;99.90;;;;;;5069924;28;20032;-52
2022/08/23 09:09:37;;;;;;;4.07;2.35;;;20.30;99.90;;;;;;5071472;28;20029;-53
2022/08/23 09:12:03;;;;;;;4.90;2.30;;;20.30;99.30;;;;;;5071495;28;20032;-51
2022/08/23 09:14:46;;;;;;;2.00;1.80;;;20.40;99.90;;;;;;5070992;28;20055;-52
2022/08/23 09:17:23;;;;;;;7.45;2.58;;;20.40;98.80;;;;;;5071150;28;20483;-51
2022/08/23 09:19:54;;;;;;;6.90;2.55;;;20.50;99.90;;;;;;5071060;28;20027;-51
2022/08/23 09:22:44;;;;;;;2.50;2.05;;;20.50;98.70;;;;;;5070741;28;20009;-52
2022/08/23 09:25:12;;;;;;;2.92;1.85;;;20.70;99.10;;;;;;5071093;28;20021;-54
2022/08/23 09:27:40;;;;;;;4.57;2.20;;;20.90;98.50;;;;;;5070942;28;20036;-54
2022/08/23 09:30:07;;;;;;;4.35;2.40;;;20.70;98.70;;;;;;5050966;28;20025;-55
2022/08/23 09:32:40;;;;;;;5.90;2.63;;;20.90;98.80;;;;;;5051521;28;20025;-52
2022/08/23 09:35:16;;;;;;;4.10;1.90;;;21.10;98.90;;;;;;5052517;28;20429;-53
2022/08/23 09:37:50;;;;;;;4.53;2.05;;;20.80;97.20;;;;;;5070065;28;20066;-55
2022/08/23 09:40:37;;;;;;;4.63;1.70;;;20.70;97.40;;;;;;5070871;28;20095;-56
2022/08/23 09:43:16;;;;;;;4.72;1.75;;;20.50;96.70;;;;;;5070188;28;20020;-56
2022/08/23 09:45:47;;;;;;;2.10;1.90;;;21.00;97.50;;;;;;5070655;28;20032;-51
2022/08/23 09:48:29;;;;;;;11.77;1.63;;;21.30;96.80;;;;;;5070408;28;20027;-52
2022/08/23 09:50:56;;;;;;;3.00;1.60;;;21.60;95.90;;;;;;5070180;28;20086;-53
2022/08/23 09:53:26;;;;;;;5.70;1.70;;;21.00;95.80;;;;;;5070424;28;20016;-53
2022/08/23 09:55:56;;;;;;;3.35;1.77;;;21.30;96.10;;;;;;5070945;28;20025;-53
2022/08/23 09:58:37;;;;;;;2.72;2.05;;;21.50;97.20;;;;;;5070407;28;20017;-52
2022/08/23 10:01:15;;;;;;;1.65;1.55;;;21.40;95.60;;;;;;5070537;28;20100;-53
2022/08/23 10:03:41;;;;;;;2.33;1.60;;;21.70;97.80;;;;;;5070278;28;20033;-51
2022/08/23 10:06:09;;;;;;;2.03;1.83;;;21.90;95.40;;;;;;5070502;28;20104;-54
2022/08/23 10:08:54;;;;;;;1.42;1.25;;;22.10;95.90;;;;;;5069504;28;20403;-52
2022/08/23 10:11:24;;;;;;;4.18;1.70;;;22.60;94.70;;;;;;5068980;28;20028;-54
2022/08/23 10:13:51;;;;;;;6.63;2.20;;;22.30;93.60;;;;;;5070254;28;20021;-52
2022/08/23 10:16:26;;;;;;;13.02;1.90;;;22.20;95.30;;;;;;5070366;28;20089;-53
2022/08/23 10:19:16;;;;;;;5.03;1.98;;;22.30;94.20;;;;;;5069674;28;20074;-56
2022/08/23 10:22:01;;;;;;;8.52;2.22;;;22.40;93.90;;;;;;5070255;28;20024;-53
2022/08/23 10:24:46;;;;;;;9.40;1.67;;;22.40;94.40;;;;;;5070073;28;20040;-53
2022/08/23 10:31:00;;;;;;;5.55;1.73;;;22.80;94.10;;;;;;5045141;28;20090;-54
2022/08/23 10:33:45;;;;;;;2.65;1.40;;;22.90;92.40;;;;;;5070056;28;20039;-53
2022/08/23 10:36:24;;;;;;;6.88;1.73;;;22.80;93.10;;;;;;5055710;28;20016;-53
2022/08/23 10:39:06;;;;;;;5.10;2.00;;;22.90;92.10;;;;;;5070136;28;20031;-55
2022/08/23 10:41:44;;;;;;;4.30;1.95;;;22.90;94.50;;;;;;5070149;28;20049;-55
2022/08/23 10:44:24;;;;;;;2.35;1.83;;;22.80;92.50;;;;;;5069968;28;20494;-55
2022/08/23 10:47:13;;;;;;;1.90;1.75;;;22.20;93.10;;;;;;5070117;28;20032;-53
2022/08/23 10:49:40;;;;;;;3.10;1.70;;;22.60;92.80;;;;;;5050059;28;20067;-53
2022/08/23 10:52:12;;;;;;;2.67;1.63;;;22.80;91.90;;;;;;5068330;28;20589;-55
2022/08/23 10:54:59;;;;;;;4.38;1.80;;;22.60;92.10;;;;;;5070040;28;20020;-55
2022/08/23 10:57:38;;;;;;;2.38;1.48;;;23.00;93.00;;;;;;5069796;28;20024;-55
2022/08/23 11:00:08;;;;;;;2.90;1.98;;;23.00;91.60;;;;;;5070301;28;20063;-53
2022/08/23 11:02:51;;;;;;;2.13;1.80;;;22.80;91.40;;;;;;5069926;28;20027;-56
2022/08/23 11:05:20;;;;;;;;;;;23.10;91.40;;;;;;5070157;28;20089;-54
2022/08/23 11:08:19;;;;;;;2.65;2.00;;;23.60;92.70;;;;;;5069760;28;19966;-56
2022/08/23 11:10:47;;;;;;;12.52;1.75;;;24.00;91.30;;;;;;5069774;28;20035;-53
2022/08/23 11:13:16;;;;;;;2.45;1.70;;;23.80;91.30;;;;;;5069346;28;20029;-56
2022/08/23 11:16:12;;;;;;;2.28;1.50;;;23.90;90.50;;;;;;5069209;28;20047;-52
2022/08/23 11:18:39;;;;;;;2.50;1.42;;;23.90;90.60;;;;;;5068293;28;20021;-54
2022/08/23 11:21:16;;;;;;;3.75;1.95;;;24.10;92.10;;;;;;5072347;28;20112;-55
2022/08/23 11:24:11;;;;;;;8.07;1.55;;;24.30;89.60;;;;;;5073636;28;20020;-53
2022/08/23 11:26:57;;;;;;;2.58;2.05;;;24.30;90.40;;;;;;5035951;28;20034;-52
2022/08/23 11:29:22;;;;;;;4.82;2.03;;;24.40;90.60;;;;;;5072855;28;20444;-53
2022/08/23 11:31:58;;;;;;;3.78;1.80;;;24.10;89.20;;;;;;5072880;28;20101;-53
2022/08/23 11:34:54;;;;;;;4.32;1.85;;;24.10;91.50;;;;;;5073214;28;20108;-54
2022/08/23 11:37:20;;;;;;;5.78;2.22;;;24.40;87.10;;;;;;5059378;28;20502;-55
2022/08/23 11:39:56;;;;;;;2.28;1.63;;;24.10;88.20;;;;;;5073155;28;20115;-56
2022/08/23 11:42:24;;;;;;;2.83;2.10;;;23.90;89.40;;;;;;5073127;28;20020;-56
2022/08/23 11:44:50;;;;;;;2.85;1.75;;;24.40;87.80;;;;;;5073079;28;20115;-55
2022/08/23 11:47:37;;;;;;;2.53;1.40;;;24.60;89.90;;;;;;5072523;28;20178;-56
2022/08/23 11:50:40;;;;;;;5.00;2.00;;;24.90;86.50;;;;;;5072666;28;20036;-56
2022/08/23 11:53:33;;;;;;;1.88;1.45;;;24.70;90.60;;;;;;5038362;28;20041;-54
2022/08/23 11:56:37;;;;;;;2.92;1.73;;;24.50;87.00;;;;;;5072813;28;20082;-56
2022/08/23 11:59:22;;;;;;;3.10;1.50;;;24.60;87.70;;;;;;5070240;28;20028;-53
2022/08/23 12:01:48;;;;;;;4.70;1.92;;;24.50;86.80;;;;;;5072888;28;20025;-52
2022/08/23 12:04:33;;;;;;;3.58;1.50;;;24.50;87.20;;;;;;5072396;28;20025;-54
2022/08/23 12:07:06;;;;;;;5.85;1.98;;;24.70;87.40;;;;;;5072531;28;20033;-54
2022/08/23 12:09:32;;;;;;;4.05;2.00;;;24.70;86.60;;;;;;5072658;28;20033;-52
2022/08/23 12:11:59;;;;;;;2.45;1.75;;;24.80;88.40;;;;;;5072161;28;20029;-55
2022/08/23 12:14:31;;;;;;;13.88;1.95;;;24.70;85.10;;;;;;5073499;28;20031;-55
2022/08/23 12:17:03;;;;;;;1.88;1.35;;;24.20;84.40;;;;;;5072257;28;20027;-55
2022/08/23 12:19:33;;;;;;;4.10;1.50;;;24.40;87.10;;;;;;5073416;28;20336;-54
2022/08/23 12:22:10;;;;;;;2.10;1.40;;;24.50;88.30;;;;;;5073147;28;20036;-56
2022/08/23 12:25:02;;;;;;;5.32;2.00;;;24.70;88.80;;;;;;5073272;28;20063;-55
2022/08/23 12:27:34;;;;;;;2.53;2.00;;;24.60;84.50;;;;;;5093081;28;20662;-54
2022/08/23 12:30:09;;;;;;;14.05;1.92;;;24.10;83.40;;;;;;5075990;28;20028;-54
2022/08/23 12:32:53;;;;;;;2.40;1.67;;;24.30;85.90;;;;;;5073096;28;20020;-56
2022/08/23 12:35:31;;;;;;;3.30;1.83;;;24.40;86.70;;;;;;5073096;28;20020;-55
2022/08/23 12:38:15;;;;;;;3.70;1.98;;;24.40;85.70;;;;;;5072990;28;20055;-54
2022/08/23 12:40:47;;;;;;;2.53;1.85;;;24.10;87.40;;;;;;5073131;28;20464;-55
2022/08/23 12:43:13;;;;;;;10.18;2.28;;;24.00;86.20;;;;;;5072990;28;20036;-55
2022/08/23 12:45:44;;;;;;;5.13;1.60;;;23.80;86.30;;;;;;5073107;28;20146;-56
2022/08/23 12:48:15;;;;;;;1.40;0.80;;;24.10;86.90;;;;;;5072888;28;20021;-55
2022/08/23 12:50:51;;;;;;;4.05;0.90;;;24.00;84.20;;;;;;5072957;28;20082;-56
2022/08/23 12:53:32;;;;;;;1.33;0.90;;;24.10;81.40;;;;;;5072833;28;20115;-55
2022/08/23 12:56:02;;;;;;;1.65;0.70;;;24.50;80.60;;;;;;5072985;28;20460;-56
2022/08/23 12:58:31;;;;;;;3.78;0.98;;;24.80;82.30;;;;;;5072653;28;20164;-56
2022/08/23 13:01:07;;;;;;;3.95;1.00;;;25.10;85.60;;;;;;5071410;28;20401;-56
2022/08/23 13:03:40;;;;;;;1.65;0.85;;;25.40;83.00;;;;;;5072621;28;20024;-56
2022/08/23 13:06:08;;;;;;;;;;;25.60;83.20;;;;;;5072895;28;20067;-56
2022/08/23 13:08:43;;;;;;;3.03;1.10;;;25.70;86.60;;;;;;5072144;28;20412;-56
2022/08/23 13:11:11;;;;;;;3.50;1.17;;;25.50;85.10;;;;;;5072197;28;20121;-57
2022/08/23 13:13:40;;;;;;;3.63;1.10;;;25.60;81.70;;;;;;5072619;28;20379;-55
2022/08/23 13:16:26;;;;;;;1.23;1.13;;;25.10;81.90;;;;;;5071409;28;20025;-57